Time;durP1;ratioP1;P1;durP2;ratioP2;P2;SDS_P1;SDS_P2;PMS_P1;PMS_P2;Temp;Humidity;BMP_temperature;BMP_pressure;BME280_temperature;BME280_humidity;BME280_pressure;Samples;Min_cycle;Max_cycle;Signal;HPM_P1;HPM_P2
2023/05/02 00:00:13;;;;;;;0.13;0.13;;;11.60;85.60;;;;;;5056833;28;20025;-78
2023/05/02 00:02:39;;;;;;;0.10;0.10;;;11.60;85.60;;;;;;5058119;28;20032;-79
2023/05/02 00:05:06;;;;;;;3.30;0.43;;;11.50;85.80;;;;;;5056708;28;20029;-78
2023/05/02 00:07:32;;;;;;;0.10;0.10;;;11.50;86.00;;;;;;5058776;28;20049;-79
2023/05/02 00:10:01;;;;;;;0.10;0.10;;;11.50;86.10;;;;;;5039159;28;20028;-79
2023/05/02 00:12:27;;;;;;;0.17;0.17;;;11.40;86.30;;;;;;5053303;28;20035;-78
2023/05/02 00:14:53;;;;;;;0.10;0.10;;;11.40;86.40;;;;;;5063680;28;20785;-78
2023/05/02 00:17:19;;;;;;;0.10;0.10;;;11.40;86.60;;;;;;5064851;28;20040;-79
2023/05/02 00:19:45;;;;;;;0.10;0.10;;;11.40;86.40;;;;;;5045326;28;20020;-79
2023/05/02 00:22:11;;;;;;;0.10;0.10;;;11.40;86.40;;;;;;5045453;28;20115;-79
2023/05/02 00:24:37;;;;;;;0.15;0.15;;;11.40;86.40;;;;;;5034981;28;20020;-78
2023/05/02 00:27:03;;;;;;;0.10;0.10;;;11.50;86.60;;;;;;5034289;28;20114;-78
2023/05/02 00:29:29;;;;;;;0.10;0.10;;;11.40;86.80;;;;;;5059899;28;20055;-78
2023/05/02 00:31:55;;;;;;;1.17;1.00;;;11.30;87.10;;;;;;5061540;28;20058;-79
2023/05/02 00:34:21;;;;;;;0.57;0.37;;;11.30;87.20;;;;;;5060462;28;20581;-78
2023/05/02 00:36:47;;;;;;;0.10;0.10;;;11.30;87.10;;;;;;5059144;28;20280;-77
2023/05/02 00:39:13;;;;;;;1.35;0.68;;;11.30;87.50;;;;;;5060049;28;20028;-79
2023/05/02 00:41:38;;;;;;;0.10;0.10;;;11.30;87.40;;;;;;5058372;28;20028;-78
2023/05/02 00:44:04;;;;;;;0.10;0.10;;;11.20;87.70;;;;;;5041773;28;20042;-78
2023/05/02 00:46:30;;;;;;;0.20;0.20;;;11.20;88.00;;;;;;5058225;28;20108;-77
2023/05/02 00:48:56;;;;;;;0.25;0.25;;;11.30;88.00;;;;;;5060067;28;20040;-78
2023/05/02 00:51:22;;;;;;;0.10;0.10;;;11.20;88.40;;;;;;5053271;28;20021;-79
2023/05/02 00:53:48;;;;;;;0.10;0.10;;;11.00;88.80;;;;;;5052130;28;20086;-78
2023/05/02 00:59:36;;;;;;;0.20;0.20;;;11.00;89.40;;;;;;5053114;28;21056;-77
2023/05/02 01:05:30;;;;;;;0.50;0.50;;;10.80;90.20;;;;;;5048161;28;20043;-79
2023/05/02 01:08:21;;;;;;;0.10;0.10;;;10.90;90.20;;;;;;5061425;28;20075;-78
2023/05/02 01:11:02;;;;;;;0.10;0.10;;;11.00;90.30;;;;;;5053318;28;20037;-78
2023/05/02 01:13:33;;;;;;;0.10;0.10;;;10.90;90.70;;;;;;5054475;28;20036;-79
2023/05/02 01:16:01;;;;;;;0.10;0.10;;;10.80;90.80;;;;;;5061646;28;20028;-78
2023/05/02 01:18:31;;;;;;;0.73;0.73;;;10.80;91.00;;;;;;5038400;28;20102;-78
2023/05/02 01:21:00;;;;;;;0.10;0.10;;;10.50;91.70;;;;;;5056804;28;20127;-78
2023/05/02 01:23:47;;;;;;;0.30;0.30;;;10.30;92.20;;;;;;5060767;28;20082;-78
2023/05/02 01:26:26;;;;;;;0.10;0.10;;;10.30;92.70;;;;;;5056571;28;20029;-78
2023/05/02 01:29:02;;;;;;;0.25;0.25;;;10.30;92.50;;;;;;5057757;28;20044;-77
2023/05/02 01:31:35;;;;;;;0.10;0.10;;;10.50;92.00;;;;;;5061421;28;20032;-77
2023/05/02 01:34:03;;;;;;;0.20;0.20;;;10.40;92.60;;;;;;5051301;28;20036;-77
2023/05/02 01:36:31;;;;;;;0.20;0.20;;;10.20;92.80;;;;;;5033831;28;20024;-78
2023/05/02 01:38:59;;;;;;;0.13;0.13;;;10.00;93.40;;;;;;5039229;28;20052;-77
2023/05/02 01:41:27;;;;;;;0.10;0.10;;;9.90;93.70;;;;;;5051041;28;20029;-77
2023/05/02 01:43:57;;;;;;;0.73;0.73;;;9.80;94.10;;;;;;5059531;28;20078;-77
2023/05/02 01:46:25;;;;;;;0.30;0.30;;;9.70;94.40;;;;;;5060283;28;20021;-77
2023/05/02 01:48:52;;;;;;;0.30;0.30;;;9.70;94.70;;;;;;5060585;28;20842;-78
2023/05/02 01:51:19;;;;;;;0.10;0.10;;;9.70;94.80;;;;;;5060066;28;20055;-78
2023/05/02 01:53:48;;;;;;;0.10;0.10;;;9.60;94.90;;;;;;5047251;28;20279;-77
2023/05/02 01:56:17;;;;;;;1.75;0.50;;;9.70;94.80;;;;;;5048503;28;20537;-78
2023/05/02 01:58:45;;;;;;;0.50;0.50;;;9.60;95.00;;;;;;5050512;28;20068;-78
2023/05/02 02:01:13;;;;;;;0.10;0.10;;;9.70;94.90;;;;;;5039794;28;20024;-77
2023/05/02 02:03:40;;;;;;;0.10;0.10;;;9.90;94.40;;;;;;5043305;28;20744;-77
2023/05/02 02:06:07;;;;;;;0.25;0.25;;;10.00;94.20;;;;;;5059723;28;20060;-78
2023/05/02 02:08:32;;;;;;;0.10;0.10;;;9.70;94.60;;;;;;5055412;28;20068;-78
2023/05/02 02:11:03;;;;;;;0.20;0.20;;;9.70;94.80;;;;;;5054628;28;20654;-78
2023/05/02 02:13:41;;;;;;;0.68;0.68;;;9.60;95.20;;;;;;5058903;28;20029;-79
2023/05/02 02:16:10;;;;;;;0.10;0.10;;;9.50;95.20;;;;;;5043243;28;20028;-78
2023/05/02 02:18:38;;;;;;;0.30;0.30;;;9.60;95.20;;;;;;5060857;28;20031;-79
2023/05/02 02:21:08;;;;;;;0.13;0.13;;;9.50;95.20;;;;;;5060691;28;20047;-78
2023/05/02 02:23:35;;;;;;;0.10;0.10;;;9.40;95.60;;;;;;5061227;28;20084;-77
2023/05/02 02:26:03;;;;;;;0.38;0.38;;;9.30;96.10;;;;;;5043042;28;20037;-77
2023/05/02 02:28:29;;;;;;;0.20;0.20;;;9.30;96.20;;;;;;5043231;28;20065;-78
2023/05/02 02:30:55;;;;;;;1.55;0.63;;;9.30;96.40;;;;;;5049825;28;20103;-77
2023/05/02 02:33:23;;;;;;;0.10;0.10;;;9.00;97.10;;;;;;5055954;28;20044;-77
2023/05/02 02:36:07;;;;;;;0.40;0.40;;;8.80;97.80;;;;;;5060893;28;20064;-77
2023/05/02 02:38:39;;;;;;;0.20;0.20;;;8.80;98.10;;;;;;5061262;28;20052;-77
2023/05/02 02:41:44;;;;;;;0.10;0.10;;;8.80;98.30;;;;;;5050480;28;20571;-77
2023/05/02 02:44:29;;;;;;;0.75;0.75;;;8.90;98.30;;;;;;5057129;28;20039;-77
2023/05/02 02:47:10;;;;;;;0.25;0.25;;;8.90;98.50;;;;;;5058268;28;20483;-77
2023/05/02 02:50:06;;;;;;;0.13;0.13;;;9.10;97.90;;;;;;5051091;28;20033;-77
2023/05/02 02:52:54;;;;;;;0.10;0.10;;;9.20;97.70;;;;;;5059191;28;20103;-78
2023/05/02 02:55:54;;;;;;;0.30;0.30;;;9.20;97.60;;;;;;5049939;28;20040;-78
2023/05/02 02:58:42;;;;;;;0.20;0.20;;;9.30;97.20;;;;;;5055826;28;21780;-78
2023/05/02 03:01:14;;;;;;;0.20;0.20;;;9.20;97.50;;;;;;5052938;28;20021;-78
2023/05/02 03:03:41;;;;;;;0.10;0.10;;;9.20;97.70;;;;;;5030570;28;20034;-78
2023/05/02 03:06:08;;;;;;;0.32;0.32;;;9.20;98.00;;;;;;5042835;28;20053;-77
2023/05/02 03:08:41;;;;;;;0.10;0.10;;;9.20;98.00;;;;;;5051281;28;20143;-79
2023/05/02 03:11:07;;;;;;;1.13;0.68;;;9.20;98.30;;;;;;5053550;28;20035;-78
2023/05/02 03:13:33;;;;;;;0.10;0.10;;;9.20;98.10;;;;;;5059302;28;20028;-78
2023/05/02 03:16:28;;;;;;;0.85;0.70;;;9.30;97.90;;;;;;5056618;28;20040;-78
2023/05/02 03:18:53;;;;;;;0.40;0.40;;;9.30;98.10;;;;;;5023404;28;20396;-78
2023/05/02 03:21:19;;;;;;;0.10;0.10;;;9.20;98.00;;;;;;5064877;28;20207;-78
2023/05/02 03:23:45;;;;;;;1.08;0.98;;;9.20;98.20;;;;;;5060876;28;20039;-78
2023/05/02 03:26:11;;;;;;;0.35;0.35;;;9.30;98.00;;;;;;5063216;28;20032;-77
2023/05/02 03:28:36;;;;;;;0.77;0.77;;;9.40;97.90;;;;;;5064350;28;20089;-78
2023/05/02 03:31:02;;;;;;;0.10;0.10;;;9.30;97.90;;;;;;5063170;28;20056;-78
2023/05/02 03:33:28;;;;;;;0.10;0.10;;;9.30;97.90;;;;;;5053629;28;20024;-78
2023/05/02 03:35:53;;;;;;;0.20;0.20;;;9.30;98.00;;;;;;5060568;28;20064;-77
2023/05/02 03:38:19;;;;;;;0.10;0.10;;;9.30;98.10;;;;;;5064681;28;20033;-78
2023/05/02 03:40:45;;;;;;;0.40;0.25;;;9.20;98.10;;;;;;5042531;28;20566;-78
2023/05/02 03:43:10;;;;;;;0.73;0.45;;;9.20;98.10;;;;;;5058794;28;20016;-78
2023/05/02 03:45:36;;;;;;;0.10;0.10;;;9.20;98.30;;;;;;5058519;28;20724;-79
2023/05/02 03:48:02;;;;;;;0.10;0.10;;;9.10;98.50;;;;;;5036188;28;20040;-78
2023/05/02 03:50:28;;;;;;;0.10;0.10;;;9.10;98.70;;;;;;5057245;28;20119;-78
2023/05/02 03:52:53;;;;;;;0.32;0.32;;;9.00;98.70;;;;;;5044959;28;20082;-79
2023/05/02 03:55:20;;;;;;;0.10;0.10;;;9.10;98.80;;;;;;5058337;28;20047;-78
2023/05/02 03:57:46;;;;;;;0.40;0.40;;;9.10;98.90;;;;;;5059626;28;20050;-78
2023/05/02 04:00:12;;;;;;;0.10;0.10;;;9.10;98.80;;;;;;5043219;28;20698;-78
2023/05/02 04:02:38;;;;;;;0.57;0.57;;;9.00;99.00;;;;;;5063418;28;20035;-79
2023/05/02 04:05:04;;;;;;;0.20;0.20;;;9.00;99.20;;;;;;5054643;28;20251;-79
2023/05/02 04:07:29;;;;;;;0.28;0.28;;;9.00;99.30;;;;;;5061174;28;20082;-78
2023/05/02 04:09:55;;;;;;;0.10;0.10;;;8.80;99.40;;;;;;5059046;28;20476;-78
2023/05/02 04:12:21;;;;;;;0.45;0.45;;;8.80;99.60;;;;;;5045800;28;20082;-78
2023/05/02 04:14:47;;;;;;;4.20;1.45;;;8.80;99.70;;;;;;5044926;28;20104;-78
2023/05/02 04:17:14;;;;;;;0.10;0.10;;;8.80;99.80;;;;;;5044699;28;20036;-78
2023/05/02 04:19:40;;;;;;;5.85;1.58;;;8.70;99.90;;;;;;5045948;28;20028;-78
2023/05/02 04:22:06;;;;;;;0.13;0.13;;;8.70;99.90;;;;;;5031515;28;20036;-78
2023/05/02 04:24:31;;;;;;;0.17;0.17;;;8.70;99.90;;;;;;5057895;28;20025;-78
2023/05/02 04:26:57;;;;;;;0.20;0.20;;;8.70;99.90;;;;;;5054297;28;20111;-78
2023/05/02 04:29:23;;;;;;;1.55;1.08;;;8.70;99.90;;;;;;5051141;28;20862;-79
2023/05/02 04:31:49;;;;;;;0.10;0.10;;;8.70;99.90;;;;;;5048030;28;20079;-79
2023/05/02 04:34:15;;;;;;;0.10;0.10;;;8.70;99.90;;;;;;5045056;28;20029;-78
2023/05/02 04:36:41;;;;;;;0.13;0.13;;;8.70;99.90;;;;;;5026530;28;20083;-78
2023/05/02 04:39:07;;;;;;;0.30;0.30;;;8.50;99.90;;;;;;5047955;28;20035;-78
2023/05/02 04:41:33;;;;;;;0.38;0.38;;;8.50;99.90;;;;;;5036945;28;20438;-78
2023/05/02 04:43:59;;;;;;;0.10;0.10;;;8.40;99.90;;;;;;5031845;28;20025;-76
2023/05/02 04:46:24;;;;;;;0.10;0.10;;;8.40;99.90;;;;;;5051714;28;20032;-77
2023/05/02 04:48:50;;;;;;;0.63;0.63;;;8.30;99.90;;;;;;5035370;28;20047;-77
2023/05/02 04:51:16;;;;;;;0.55;0.55;;;8.30;99.90;;;;;;5048944;28;20116;-76
2023/05/02 04:53:41;;;;;;;0.22;0.22;;;8.40;99.90;;;;;;5060760;28;20080;-77
2023/05/02 04:56:07;;;;;;;0.10;0.10;;;8.70;99.90;;;;;;5052443;28;20039;-77
2023/05/02 04:58:36;;;;;;;0.25;0.25;;;9.50;99.90;;;;;;5060409;28;20048;-77
2023/05/02 05:01:01;;;;;;;0.10;0.10;;;10.20;97.70;;;;;;5057649;28;20027;-77
2023/05/02 05:03:32;;;;;;;0.70;0.70;;;10.50;96.40;;;;;;5045892;28;20029;-77
2023/05/02 05:05:58;;;;;;;0.20;0.20;;;10.90;95.30;;;;;;5059977;28;20029;-77
2023/05/02 05:08:23;;;;;;;0.10;0.10;;;11.40;94.20;;;;;;5047276;28;20090;-77
2023/05/02 05:10:50;;;;;;;0.15;0.15;;;11.70;93.40;;;;;;5054799;28;20148;-80
2023/05/02 05:13:15;;;;;;;0.10;0.10;;;11.90;93.00;;;;;;5031981;28;20154;-79
2023/05/02 05:15:41;;;;;;;0.20;0.20;;;12.40;92.10;;;;;;5049330;28;20025;-79
2023/05/02 05:18:06;;;;;;;0.10;0.10;;;12.80;91.00;;;;;;5044438;28;20059;-80
2023/05/02 05:20:32;;;;;;;0.10;0.10;;;13.30;90.10;;;;;;5050644;28;20033;-79
2023/05/02 05:22:58;;;;;;;0.10;0.10;;;13.50;89.50;;;;;;5055150;28;20025;-79
2023/05/02 05:25:27;;;;;;;0.17;0.17;;;14.10;86.50;;;;;;5055106;28;20028;-79
2023/05/02 05:27:54;;;;;;;0.13;0.13;;;14.40;86.00;;;;;;5060254;28;20495;-77
2023/05/02 05:30:20;;;;;;;0.10;0.10;;;14.40;85.40;;;;;;5046730;28;20512;-77
2023/05/02 05:32:46;;;;;;;0.43;0.43;;;14.70;84.10;;;;;;5031827;28;20502;-78
2023/05/02 05:35:12;;;;;;;0.10;0.10;;;15.20;82.80;;;;;;5041255;28;20031;-78
2023/05/02 05:37:38;;;;;;;0.67;0.67;;;15.50;81.00;;;;;;5052597;28;20036;-77
2023/05/02 05:40:06;;;;;;;0.00;0.00;;;15.80;80.00;;;;;;5057051;28;20024;-76
2023/05/02 05:42:32;;;;;;;0.10;0.10;;;16.30;78.80;;;;;;5047183;28;20021;-78
2023/05/02 05:44:58;;;;;;;0.47;0.30;;;16.30;78.60;;;;;;5058968;28;20090;-77
2023/05/02 05:47:23;;;;;;;0.07;0.07;;;16.30;78.40;;;;;;5049703;28;20028;-78
2023/05/02 05:49:58;;;;;;;0.00;0.00;;;16.70;77.60;;;;;;5040957;28;20035;-78
2023/05/02 05:52:24;;;;;;;0.35;0.35;;;16.70;77.60;;;;;;5032980;28;20090;-77
2023/05/02 05:54:54;;;;;;;0.10;0.10;;;16.40;77.40;;;;;;5043927;28;20049;-78
2023/05/02 05:57:20;;;;;;;2.20;0.68;;;16.80;76.50;;;;;;5061573;28;20037;-77
2023/05/02 05:59:46;;;;;;;0.00;0.00;;;17.40;75.30;;;;;;5054437;28;20052;-78
2023/05/02 06:02:11;;;;;;;0.30;0.23;;;17.50;74.10;;;;;;5051038;28;20800;-78
2023/05/02 06:04:37;;;;;;;1.07;0.43;;;18.10;72.90;;;;;;5055970;28;20025;-77
2023/05/02 06:07:03;;;;;;;0.00;0.00;;;17.80;72.60;;;;;;5043750;28;20036;-78
2023/05/02 06:09:28;;;;;;;0.53;0.33;;;17.60;73.30;;;;;;5057398;28;20037;-76
2023/05/02 06:11:54;;;;;;;0.00;0.00;;;17.70;72.40;;;;;;5055742;28;20411;-76
2023/05/02 06:14:20;;;;;;;0.00;0.00;;;17.40;73.30;;;;;;5057501;28;20958;-76
2023/05/02 06:16:45;;;;;;;0.00;0.00;;;17.60;71.90;;;;;;5051093;28;20556;-77
2023/05/02 06:19:11;;;;;;;0.57;0.57;;;18.20;71.10;;;;;;5058418;28;20036;-77
2023/05/02 06:21:37;;;;;;;0.27;0.27;;;18.10;70.70;;;;;;5049677;28;20036;-78
2023/05/02 06:24:03;;;;;;;0.10;0.10;;;17.60;72.80;;;;;;5051933;28;20033;-79
2023/05/02 06:26:28;;;;;;;0.00;0.00;;;17.80;71.80;;;;;;5050193;28;20127;-79
2023/05/02 06:28:54;;;;;;;18.43;0.60;;;18.10;70.70;;;;;;5055741;28;20044;-79
2023/05/02 06:31:20;;;;;;;0.30;0.30;;;18.60;70.40;;;;;;5053282;28;20119;-79
2023/05/02 06:33:46;;;;;;;0.10;0.10;;;18.00;69.80;;;;;;5060450;28;20060;-78
2023/05/02 06:36:12;;;;;;;0.00;0.00;;;18.60;69.60;;;;;;5055211;28;20029;-78
2023/05/02 06:38:37;;;;;;;0.30;0.30;;;18.80;67.80;;;;;;5054495;28;20483;-78
2023/05/02 06:41:03;;;;;;;0.20;0.20;;;19.00;67.70;;;;;;5052814;28;20514;-78
2023/05/02 06:43:28;;;;;;;0.00;0.00;;;19.30;67.00;;;;;;5049142;28;20589;-79
2023/05/02 06:45:57;;;;;;;0.00;0.00;;;20.10;65.50;;;;;;5045681;28;20457;-79
2023/05/02 06:48:23;;;;;;;0.00;0.00;;;19.70;64.20;;;;;;5051476;28;20040;-79
2023/05/02 06:50:51;;;;;;;0.10;0.10;;;20.60;63.30;;;;;;5064976;28;20018;-79
2023/05/02 06:53:17;;;;;;;0.17;0.17;;;21.90;62.50;;;;;;5047382;28;20037;-79
2023/05/02 06:55:44;;;;;;;0.30;0.30;;;20.80;61.40;;;;;;5058375;28;20563;-79
2023/05/02 06:58:10;;;;;;;0.00;0.00;;;20.70;62.60;;;;;;5057478;28;20053;-78
2023/05/02 07:00:36;;;;;;;0.00;0.00;;;21.20;61.50;;;;;;5064346;28;20036;-79
2023/05/02 07:03:01;;;;;;;0.00;0.00;;;21.10;61.50;;;;;;5058061;28;20025;-79
2023/05/02 07:05:29;;;;;;;0.00;0.00;;;20.40;60.80;;;;;;5065329;28;20796;-78
2023/05/02 07:07:55;;;;;;;0.15;0.15;;;20.60;61.00;;;;;;5062324;28;20048;-79
2023/05/02 07:10:20;;;;;;;0.00;0.00;;;20.60;60.80;;;;;;5055294;28;20209;-79
2023/05/02 07:12:46;;;;;;;0.00;0.00;;;21.10;59.30;;;;;;5065047;28;20086;-79
2023/05/02 07:15:12;;;;;;;1.00;0.90;;;21.30;59.40;;;;;;5046858;28;20695;-79
2023/05/02 07:17:39;;;;;;;0.00;0.00;;;22.90;57.20;;;;;;5063668;28;20486;-79
2023/05/02 07:20:06;;;;;;;0.00;0.00;;;23.10;56.20;;;;;;5046514;28;20040;-79
2023/05/02 07:22:32;;;;;;;0.30;0.30;;;22.20;55.50;;;;;;5063704;28;20035;-79
2023/05/02 07:24:59;;;;;;;0.00;0.00;;;22.50;55.40;;;;;;5046088;28;20025;-79
2023/05/02 07:27:25;;;;;;;0.10;0.10;;;22.80;55.30;;;;;;5043155;28;20041;-79
2023/05/02 07:29:51;;;;;;;0.00;0.00;;;22.20;54.60;;;;;;5036992;28;20403;-79
2023/05/02 07:32:16;;;;;;;0.00;0.00;;;23.10;54.20;;;;;;5059388;28;20275;-79
2023/05/02 07:34:42;;;;;;;0.37;0.37;;;23.00;54.30;;;;;;5065247;28;20029;-79
2023/05/02 07:37:08;;;;;;;0.00;0.00;;;23.50;54.70;;;;;;5057726;28;20852;-79
2023/05/02 07:39:34;;;;;;;0.65;0.65;;;22.40;52.80;;;;;;5059842;28;20183;-79
2023/05/02 07:42:00;;;;;;;0.10;0.10;;;23.20;53.20;;;;;;5057666;28;20104;-78
2023/05/02 07:44:25;;;;;;;0.28;0.28;;;23.20;53.20;;;;;;5059852;28;20028;-78
2023/05/02 07:46:52;;;;;;;0.00;0.00;;;23.80;52.40;;;;;;5053219;28;20507;-79
2023/05/02 07:49:18;;;;;;;0.00;0.00;;;23.70;51.50;;;;;;5058924;28;20104;-79
2023/05/02 07:51:44;;;;;;;0.30;0.30;;;24.00;53.10;;;;;;5038329;28;20474;-79
2023/05/02 07:54:20;;;;;;;0.08;0.05;;;23.50;52.40;;;;;;5057791;28;20032;-79
2023/05/02 07:56:46;;;;;;;;;;;24.60;51.60;;;;;;5053247;28;20128;-79
2023/05/02 07:59:12;;;;;;;0.90;0.32;;;23.90;51.70;;;;;;5058610;28;20007;-79
2023/05/02 08:01:39;;;;;;;0.00;0.00;;;23.00;52.40;;;;;;5033548;28;20066;-79
2023/05/02 08:04:05;;;;;;;0.00;0.00;;;24.40;51.00;;;;;;5059060;28;20039;-79
2023/05/02 08:06:33;;;;;;;0.10;0.10;;;24.00;50.50;;;;;;5050688;28;20029;-79
2023/05/02 08:08:59;;;;;;;0.15;0.15;;;24.90;49.90;;;;;;5056138;28;20640;-79
2023/05/02 08:11:25;;;;;;;0.10;0.10;;;24.70;48.60;;;;;;5059376;28;20025;-79
2023/05/02 08:13:51;;;;;;;0.20;0.20;;;26.10;47.00;;;;;;5061850;28;20040;-79
2023/05/02 08:16:17;;;;;;;;;;;27.90;46.60;;;;;;5046130;28;20178;-79
2023/05/02 08:18:43;;;;;;;0.00;0.00;;;26.70;45.00;;;;;;5063363;28;19999;-79
2023/05/02 08:21:09;;;;;;;0.10;0.10;;;26.00;45.40;;;;;;5063362;28;20170;-79
2023/05/02 08:23:36;;;;;;;0.10;0.10;;;25.40;44.50;;;;;;5063730;28;20037;-79
2023/05/02 08:26:02;;;;;;;0.00;0.00;;;26.50;46.00;;;;;;5042055;28;20645;-79
2023/05/02 08:28:29;;;;;;;0.03;0.03;;;26.40;44.90;;;;;;5061455;28;20052;-79
2023/05/02 08:30:55;;;;;;;0.40;0.40;;;25.30;47.00;;;;;;5051456;28;20551;-79
2023/05/02 08:33:21;;;;;;;0.00;0.00;;;25.70;47.00;;;;;;5042088;28;20054;-79
2023/05/02 08:35:47;;;;;;;0.00;0.00;;;26.30;44.40;;;;;;5056438;28;20160;-79
2023/05/02 08:38:12;;;;;;;0.32;0.32;;;26.50;43.10;;;;;;5059855;28;20089;-79
2023/05/02 08:40:38;;;;;;;0.00;0.00;;;25.70;45.20;;;;;;5055535;28;20029;-79
2023/05/02 08:43:07;;;;;;;0.10;0.10;;;26.50;41.40;;;;;;5057927;28;20847;-79
2023/05/02 08:45:39;;;;;;;0.10;0.10;;;27.00;43.00;;;;;;5052164;28;20503;-79
2023/05/02 08:48:13;;;;;;;0.00;0.00;;;26.80;42.00;;;;;;5055368;28;20109;-79
2023/05/02 08:50:41;;;;;;;0.00;0.00;;;28.00;43.40;;;;;;5050892;28;20017;-79
2023/05/02 08:53:11;;;;;;;0.00;0.00;;;27.50;43.00;;;;;;5056920;28;20033;-78
2023/05/02 08:55:39;;;;;;;0.00;0.00;;;27.70;41.70;;;;;;5035848;28;20032;-78
2023/05/02 08:58:06;;;;;;;0.00;0.00;;;26.90;43.40;;;;;;5051716;28;20055;-79
2023/05/02 09:00:35;;;;;;;0.00;0.00;;;27.50;41.90;;;;;;5032996;28;20020;-78
2023/05/02 09:03:16;;;;;;;1.35;0.52;;;27.50;41.60;;;;;;5057217;28;20032;-79
2023/05/02 09:05:43;;;;;;;0.00;0.00;;;26.60;43.00;;;;;;5052691;28;20071;-79
2023/05/02 09:08:09;;;;;;;0.00;0.00;;;27.80;41.40;;;;;;5056045;28;20044;-79
2023/05/02 09:10:36;;;;;;;0.00;0.00;;;28.20;42.90;;;;;;5050213;28;20028;-79
2023/05/02 09:13:26;;;;;;;0.00;0.00;;;27.20;40.90;;;;;;5054653;28;20733;-78
2023/05/02 09:16:01;;;;;;;0.15;0.15;;;26.60;41.20;;;;;;5062700;28;20048;-78
2023/05/02 09:18:32;;;;;;;0.00;0.00;;;26.00;41.10;;;;;;5051883;28;20020;-78
2023/05/02 09:21:00;;;;;;;1.45;0.85;;;26.80;41.80;;;;;;5060896;28;20098;-78
2023/05/02 09:23:39;;;;;;;0.43;0.20;;;26.70;41.50;;;;;;5045234;28;20056;-78
2023/05/02 09:26:19;;;;;;;0.60;0.30;;;26.50;41.10;;;;;;5043799;28;20094;-78
2023/05/02 09:28:45;;;;;;;0.15;0.15;;;28.10;40.20;;;;;;5041594;28;20085;-78
2023/05/02 09:31:13;;;;;;;0.10;0.10;;;27.00;41.00;;;;;;5059346;28;20033;-78
2023/05/02 09:33:40;;;;;;;0.00;0.00;;;25.90;41.70;;;;;;5041001;28;20035;-78
2023/05/02 09:36:07;;;;;;;;;;;26.50;42.10;;;;;;5058882;28;20037;-78
2023/05/02 09:38:33;;;;;;;0.73;0.50;;;27.60;39.90;;;;;;5040449;28;20306;-78
2023/05/02 09:40:59;;;;;;;0.45;0.35;;;27.40;42.00;;;;;;5056337;28;20032;-78
2023/05/02 09:43:26;;;;;;;0.00;0.00;;;27.10;40.60;;;;;;5040516;28;20029;-78
2023/05/02 09:46:06;;;;;;;0.32;0.32;;;27.30;41.40;;;;;;5054876;28;20024;-78
2023/05/02 09:48:52;;;;;;;0.20;0.20;;;28.40;39.00;;;;;;5053776;28;20037;-79
2023/05/02 09:51:19;;;;;;;0.00;0.00;;;30.10;38.30;;;;;;5037423;28;20040;-78
2023/05/02 09:53:45;;;;;;;0.03;0.03;;;29.40;38.40;;;;;;5050644;28;20601;-78
2023/05/02 09:56:11;;;;;;;0.10;0.10;;;29.50;39.60;;;;;;5055871;28;20041;-78
2023/05/02 09:58:36;;;;;;;0.17;0.13;;;27.60;38.00;;;;;;5049959;28;20563;-79
2023/05/02 10:01:04;;;;;;;0.10;0.10;;;29.50;38.30;;;;;;5055762;28;20067;-78
2023/05/02 10:03:31;;;;;;;0.10;0.10;;;29.20;39.20;;;;;;5054806;28;20017;-78
2023/05/02 10:05:57;;;;;;;0.32;0.30;;;30.30;37.50;;;;;;5049467;28;20114;-78
2023/05/02 10:08:27;;;;;;;;;;;28.90;37.80;;;;;;5062006;28;20119;-78
2023/05/02 10:10:55;;;;;;;1.00;0.40;;;28.40;39.80;;;;;;5038479;28;19953;-78
2023/05/02 10:13:31;;;;;;;0.00;0.00;;;27.60;39.40;;;;;;5060513;28;20695;-78
2023/05/02 10:16:02;;;;;;;0.00;0.00;;;28.50;42.40;;;;;;5043790;28;20044;-78
2023/05/02 10:19:07;;;;;;;0.20;0.15;;;27.70;40.20;;;;;;5061902;28;20031;-78
2023/05/02 10:21:35;;;;;;;0.00;0.00;;;27.90;38.90;;;;;;5050667;28;20020;-78
2023/05/02 10:24:02;;;;;;;0.00;0.00;;;29.00;38.70;;;;;;5059580;28;20105;-78
2023/05/02 10:26:28;;;;;;;0.00;0.00;;;27.40;40.70;;;;;;5032815;28;20044;-78
2023/05/02 10:28:55;;;;;;;0.00;0.00;;;25.40;42.30;;;;;;5048638;28;20729;-78
2023/05/02 10:31:21;;;;;;;2.20;0.47;;;24.80;42.60;;;;;;5060507;28;20028;-78
2023/05/02 10:33:53;;;;;;;0.00;0.00;;;24.90;42.50;;;;;;5039882;28;20250;-78
2023/05/02 10:36:21;;;;;;;0.22;0.20;;;24.50;43.20;;;;;;5052542;28;20063;-78
2023/05/02 10:38:47;;;;;;;1.00;0.57;;;23.70;44.30;;;;;;5058763;28;20063;-78
2023/05/02 10:41:17;;;;;;;0.00;0.00;;;22.80;45.10;;;;;;5057128;28;20025;-78
2023/05/02 10:43:48;;;;;;;0.00;0.00;;;21.80;46.10;;;;;;5065293;28;20551;-78
2023/05/02 10:46:39;;;;;;;0.05;0.05;;;22.40;45.90;;;;;;5061664;28;20093;-78
2023/05/02 10:49:12;;;;;;;0.00;0.00;;;22.00;46.90;;;;;;5052852;28;20128;-78
2023/05/02 10:51:40;;;;;;;0.35;0.35;;;22.30;48.70;;;;;;5063691;28;20567;-78
2023/05/02 10:54:20;;;;;;;0.30;0.30;;;21.60;47.50;;;;;;5061152;28;20107;-78
2023/05/02 10:57:04;;;;;;;0.00;0.00;;;21.20;46.30;;;;;;5061971;28;20029;-79
2023/05/02 10:59:38;;;;;;;0.65;0.47;;;21.30;48.00;;;;;;5055642;28;20559;-78
2023/05/02 11:02:24;;;;;;;0.00;0.00;;;21.40;49.20;;;;;;5061453;28;20079;-78
2023/05/02 11:05:06;;;;;;;0.10;0.10;;;21.50;48.30;;;;;;5061186;28;20033;-78
2023/05/02 11:07:36;;;;;;;0.00;0.00;;;21.20;51.30;;;;;;5055417;28;20036;-78
2023/05/02 11:10:14;;;;;;;0.00;0.00;;;21.30;51.70;;;;;;5061185;28;20031;-78
2023/05/02 11:12:59;;;;;;;0.13;0.10;;;21.20;52.50;;;;;;5057871;28;20494;-78
2023/05/02 11:15:28;;;;;;;0.10;0.10;;;20.80;50.00;;;;;;5061190;28;20036;-78
2023/05/02 11:18:07;;;;;;;0.00;0.00;;;20.60;48.70;;;;;;5060238;28;20017;-78
2023/05/02 11:20:34;;;;;;;0.00;0.00;;;20.60;50.00;;;;;;5042351;28;20020;-78
2023/05/02 11:23:21;;;;;;;0.00;0.00;;;20.70;51.60;;;;;;5055137;28;20032;-78
2023/05/02 11:25:51;;;;;;;0.05;0.05;;;20.50;48.00;;;;;;5055715;28;20104;-78
2023/05/02 11:28:35;;;;;;;0.10;0.05;;;20.70;51.60;;;;;;5061209;28;20043;-78
2023/05/02 11:31:01;;;;;;;0.00;0.00;;;20.60;50.20;;;;;;5056222;28;20025;-79
2023/05/02 11:33:30;;;;;;;0.00;0.00;;;20.60;48.30;;;;;;5043097;28;20562;-78
2023/05/02 11:35:57;;;;;;;0.00;0.00;;;20.60;50.80;;;;;;5058227;28;20029;-78
2023/05/02 11:38:24;;;;;;;0.22;0.22;;;20.40;51.50;;;;;;5042845;28;20501;-78
2023/05/02 11:40:58;;;;;;;0.00;0.00;;;20.50;49.40;;;;;;5053599;28;20037;-78
2023/05/02 11:43:25;;;;;;;0.00;0.00;;;20.30;50.10;;;;;;5064274;28;20024;-78
2023/05/02 11:45:52;;;;;;;0.00;0.00;;;20.40;49.50;;;;;;5065165;28;20025;-78
2023/05/02 11:48:21;;;;;;;0.00;0.00;;;20.10;48.30;;;;;;5064167;28;20042;-78
2023/05/02 11:50:51;;;;;;;0.20;0.20;;;20.20;50.40;;;;;;5043877;28;20071;-78
2023/05/02 11:53:21;;;;;;;0.10;0.10;;;19.90;46.20;;;;;;5064172;28;20029;-78
2023/05/02 11:55:52;;;;;;;2.38;0.73;;;20.30;50.90;;;;;;5046625;28;20048;-78
2023/05/02 11:58:22;;;;;;;0.00;0.00;;;20.10;50.50;;;;;;5064634;28;20059;-78
2023/05/02 12:00:49;;;;;;;0.00;0.00;;;20.30;53.00;;;;;;5064284;28;20048;-78
2023/05/02 12:03:31;;;;;;;;;;;19.80;48.80;;;;;;5052965;28;20028;-78
2023/05/02 12:06:10;;;;;;;0.20;0.20;;;20.20;53.70;;;;;;5063803;28;19912;-78
2023/05/02 12:08:36;;;;;;;0.38;0.38;;;20.10;50.80;;;;;;5071547;28;20049;-78
2023/05/02 12:11:01;;;;;;;0.00;0.00;;;19.90;50.50;;;;;;5062261;28;20016;-78
2023/05/02 12:13:28;;;;;;;0.00;0.00;;;20.10;52.90;;;;;;5063904;28;20399;-78
2023/05/02 12:15:55;;;;;;;0.30;0.30;;;20.10;49.60;;;;;;5045678;28;20535;-78
2023/05/02 12:18:22;;;;;;;0.10;0.10;;;19.90;49.80;;;;;;5055958;28;20028;-78
2023/05/02 12:20:50;;;;;;;0.00;0.00;;;20.00;51.10;;;;;;5059390;28;20029;-78
2023/05/02 12:23:18;;;;;;;0.00;0.00;;;20.20;55.00;;;;;;5056585;28;20052;-78
2023/05/02 12:25:44;;;;;;;1.13;0.55;;;19.90;50.50;;;;;;5050342;28;20025;-78
2023/05/02 12:28:10;;;;;;;0.25;0.25;;;19.90;51.10;;;;;;5061816;28;20044;-78
2023/05/02 12:30:38;;;;;;;0.00;0.00;;;19.90;49.40;;;;;;5059273;28;20029;-78
2023/05/02 12:33:05;;;;;;;0.05;0.05;;;19.80;49.50;;;;;;5060922;28;20017;-78
2023/05/02 12:35:31;;;;;;;;;;;20.10;49.50;;;;;;5060912;28;20108;-78
2023/05/02 12:38:15;;;;;;;0.03;0.03;;;20.00;49.40;;;;;;5059955;28;19965;-78
2023/05/02 12:40:52;;;;;;;0.00;0.00;;;20.30;52.40;;;;;;5041969;28;20033;-78
2023/05/02 12:43:19;;;;;;;0.10;0.10;;;20.20;51.60;;;;;;5059412;28;20047;-78
2023/05/02 12:45:47;;;;;;;0.00;0.00;;;20.20;51.20;;;;;;5058085;28;20035;-78
2023/05/02 12:48:25;;;;;;;0.00;0.00;;;19.90;50.20;;;;;;5057029;28;20032;-78
2023/05/02 12:50:51;;;;;;;0.30;0.30;;;19.70;47.70;;;;;;5060241;28;20020;-78
2023/05/02 12:53:36;;;;;;;0.00;0.00;;;20.00;48.70;;;;;;5054711;28;20705;-78
2023/05/02 12:56:02;;;;;;;0.20;0.20;;;19.80;47.40;;;;;;5036372;28;20511;-78
2023/05/02 12:58:28;;;;;;;0.00;0.00;;;20.10;51.50;;;;;;5039386;28;20140;-78
2023/05/02 13:00:54;;;;;;;0.93;0.45;;;19.80;49.70;;;;;;5056624;28;20056;-78
2023/05/02 13:03:21;;;;;;;0.25;0.25;;;19.90;50.00;;;;;;5054508;28;20032;-78
2023/05/02 13:05:46;;;;;;;0.10;0.10;;;19.80;47.70;;;;;;5062684;28;20499;-78